createdAt,value
2022-12-01T00:01:02.255Z,83.30
2022-12-01T00:03:32.509Z,83.20
2022-12-01T00:06:03.158Z,83.30
2022-12-01T00:08:30.277Z,83.30
2022-12-01T00:11:03.549Z,83.30
2022-12-01T00:13:30.293Z,83.20
2022-12-01T00:15:56.978Z,83.20
2022-12-01T00:18:23.658Z,83.20
2022-12-01T00:20:55.984Z,83.20
2022-12-01T00:23:23.103Z,83.30
2022-12-01T00:25:49.857Z,83.30
2022-12-01T00:28:16.574Z,83.30
2022-12-01T00:30:43.549Z,83.40
2022-12-01T00:33:10.350Z,83.40
2022-12-01T00:35:37.210Z,83.40
2022-12-01T00:38:04.012Z,83.40
2022-12-01T00:40:30.699Z,83.50
2022-12-01T00:42:57.350Z,83.50
2022-12-01T00:45:24.014Z,83.50
2022-12-01T00:47:50.665Z,83.50
2022-12-01T00:50:17.379Z,83.50
2022-12-01T00:52:44.070Z,83.70
2022-12-01T00:55:11.155Z,83.70
2022-12-01T00:57:37.969Z,83.70
2022-12-01T01:00:05.874Z,83.70
2022-12-01T01:02:32.583Z,83.80
2022-12-01T01:04:59.302Z,83.80
2022-12-01T01:07:25.998Z,83.90
2022-12-01T01:09:53.124Z,83.90
2022-12-01T01:12:19.765Z,84.00
2022-12-01T01:14:46.442Z,84.00
2022-12-01T01:17:13.123Z,84.00
2022-12-01T01:19:39.781Z,84.00
2022-12-01T01:22:06.487Z,84.00
2022-12-01T01:24:33.179Z,84.00
2022-12-01T01:26:59.924Z,84.10
2022-12-01T01:29:26.646Z,84.20
2022-12-01T01:31:53.622Z,84.20
2022-12-01T01:34:20.341Z,84.20
2022-12-01T01:36:47.072Z,84.20
2022-12-01T01:39:13.740Z,84.20
2022-12-01T01:41:40.424Z,84.20
2022-12-01T01:44:25.973Z,84.20
2022-12-01T01:46:52.668Z,84.30
2022-12-01T01:49:19.387Z,84.30
2022-12-01T01:51:48.572Z,84.30
2022-12-01T01:54:26.607Z,84.30
2022-12-01T01:56:54.242Z,84.40
2022-12-01T01:59:22.629Z,84.40
2022-12-01T02:01:52.851Z,84.40
2022-12-01T02:04:19.887Z,84.50
2022-12-01T02:06:46.690Z,84.50
2022-12-01T02:09:13.377Z,84.50
2022-12-01T02:11:54.890Z,84.50
2022-12-01T02:14:25.093Z,84.50
2022-12-01T02:16:58.210Z,84.60
2022-12-01T02:19:43.345Z,84.60
2022-12-01T02:22:28.479Z,84.60
2022-12-01T02:25:14.043Z,84.60
2022-12-01T02:28:04.008Z,84.60
2022-12-01T02:30:44.325Z,84.60
2022-12-01T02:33:19.454Z,84.60
2022-12-01T02:35:52.521Z,84.50
2022-12-01T02:38:25.286Z,84.50
2022-12-01T02:41:01.670Z,84.40
2022-12-01T02:43:28.379Z,84.50
2022-12-01T02:45:59.327Z,84.40
2022-12-01T02:48:28.564Z,84.40
2022-12-01T02:50:57.099Z,84.30
2022-12-01T02:53:23.886Z,84.30
2022-12-01T02:55:54.997Z,84.20
2022-12-01T02:58:21.905Z,84.10
2022-12-01T03:00:57.884Z,84.00
2022-12-01T03:03:33.671Z,84.00
2022-12-01T03:06:11.671Z,83.90
2022-12-01T03:08:46.564Z,83.80
2022-12-01T03:11:27.189Z,83.80
2022-12-01T03:14:01.414Z,83.80
2022-12-01T03:16:49.698Z,83.70
2022-12-01T03:19:35.187Z,83.60
2022-12-01T03:22:04.895Z,83.60
2022-12-01T03:24:33.083Z,83.50
2022-12-01T03:27:01.629Z,83.50
2022-12-01T03:29:31.944Z,83.60
2022-12-01T03:32:00.635Z,83.70
2022-12-01T03:34:39.633Z,83.70
2022-12-01T03:37:13.956Z,83.80
2022-12-01T03:39:41.635Z,83.80
2022-12-01T03:42:13.476Z,83.80
2022-12-01T03:44:45.461Z,83.80
2022-12-01T03:47:14.649Z,83.80
2022-12-01T03:49:44.082Z,83.70
2022-12-01T03:52:25.606Z,83.80
2022-12-01T03:54:52.444Z,83.70
2022-12-01T03:57:24.461Z,83.70
2022-12-01T03:59:51.924Z,83.70
2022-12-01T04:02:18.697Z,83.70
2022-12-01T04:04:45.561Z,83.70
2022-12-01T04:07:13.560Z,83.60
2022-12-01T04:09:41.705Z,83.60
2022-12-01T04:12:29.589Z,83.50
2022-12-01T04:14:57.230Z,83.50
2022-12-01T04:17:24.609Z,83.40
2022-12-01T04:19:51.599Z,83.40
2022-12-01T04:22:18.453Z,83.30
2022-12-01T04:24:45.134Z,83.30
2022-12-01T04:27:11.923Z,83.30
2022-12-01T04:29:38.623Z,83.30
2022-12-01T04:32:05.404Z,83.30
2022-12-01T04:34:32.052Z,83.30
2022-12-01T04:36:58.785Z,83.30
2022-12-01T04:39:25.420Z,83.20
2022-12-01T04:41:52.111Z,83.20
2022-12-01T04:44:18.849Z,83.20
2022-12-01T04:46:45.590Z,83.20
2022-12-01T04:49:12.286Z,83.00
2022-12-01T04:51:39.062Z,83.00
2022-12-01T04:54:05.957Z,83.00
2022-12-01T04:56:33.655Z,83.00
2022-12-01T04:59:00.654Z,83.00
2022-12-01T05:01:27.418Z,83.00
2022-12-01T05:03:54.275Z,83.00
2022-12-01T05:06:25.002Z,83.00
2022-12-01T05:08:54.106Z,83.00
2022-12-01T05:11:20.814Z,83.00
2022-12-01T05:13:48.182Z,83.00
2022-12-01T05:16:16.653Z,83.00
2022-12-01T05:18:43.978Z,83.10
2022-12-01T05:21:11.093Z,83.10
2022-12-01T05:23:38.737Z,83.20
2022-12-01T05:26:06.351Z,83.20
2022-12-01T05:28:33.172Z,83.20
2022-12-01T05:30:59.858Z,83.20
2022-12-01T05:33:27.120Z,83.10
2022-12-01T05:35:54.107Z,83.10
2022-12-01T05:38:20.859Z,82.90
2022-12-01T05:40:54.604Z,82.80
2022-12-01T05:43:28.353Z,82.80
2022-12-01T05:45:56.051Z,82.60
2022-12-01T05:48:22.820Z,82.50
2022-12-01T05:50:49.470Z,82.40
2022-12-01T05:53:16.664Z,82.40
2022-12-01T05:55:43.436Z,82.30
2022-12-01T05:58:10.683Z,82.30
2022-12-01T06:00:45.052Z,82.30
2022-12-01T06:03:12.889Z,82.20
2022-12-01T06:05:39.671Z,82.20
2022-12-01T06:08:06.536Z,82.20
2022-12-01T06:10:33.222Z,82.20
2022-12-01T06:12:59.895Z,82.20
2022-12-01T06:15:26.837Z,82.20
2022-12-01T06:17:53.574Z,82.20
2022-12-01T06:20:20.267Z,82.30
2022-12-01T06:22:46.941Z,82.30
2022-12-01T06:25:13.657Z,82.30
2022-12-01T06:27:40.334Z,82.30
2022-12-01T06:30:07.361Z,82.30
2022-12-01T06:32:34.065Z,82.30
2022-12-01T06:35:00.739Z,82.30
2022-12-01T06:37:27.666Z,82.40
2022-12-01T06:39:54.345Z,82.40
2022-12-01T06:42:21.148Z,82.40
2022-12-01T06:44:47.887Z,82.40
2022-12-01T06:47:17.241Z,82.40
2022-12-01T06:49:44.149Z,82.50
2022-12-01T06:52:10.840Z,82.50
2022-12-01T06:54:37.674Z,82.50
2022-12-01T06:57:04.497Z,82.60
2022-12-01T06:59:31.381Z,82.60
2022-12-01T07:01:58.562Z,82.60
2022-12-01T07:04:25.338Z,82.70
2022-12-01T07:06:52.043Z,82.70
2022-12-01T07:09:18.766Z,82.70
2022-12-01T07:11:45.718Z,82.70
2022-12-01T07:14:23.622Z,82.80
2022-12-01T07:16:50.607Z,82.70
2022-12-01T07:19:17.338Z,82.70
2022-12-01T07:21:44.069Z,82.70
2022-12-01T07:24:12.602Z,82.70
2022-12-01T07:26:40.311Z,82.80
2022-12-01T07:29:07.136Z,82.90
2022-12-01T07:31:33.850Z,82.90
2022-12-01T07:34:00.610Z,83.00
2022-12-01T07:36:27.293Z,82.90
2022-12-01T07:38:53.967Z,82.90
2022-12-01T07:41:20.685Z,83.00
2022-12-01T07:43:50.215Z,83.00
2022-12-01T07:46:23.780Z,83.10
2022-12-01T07:48:51.619Z,83.00
2022-12-01T07:51:18.986Z,83.00
2022-12-01T07:53:46.149Z,83.00
2022-12-01T07:56:13.016Z,83.00
2022-12-01T07:58:39.739Z,83.00
2022-12-01T08:01:07.860Z,83.00
2022-12-01T08:03:34.929Z,83.00
2022-12-01T08:06:02.316Z,83.00
2022-12-01T08:08:29.748Z,82.90
2022-12-01T08:11:00.522Z,83.00
2022-12-01T08:13:27.215Z,82.90
2022-12-01T08:15:54.309Z,82.90
2022-12-01T08:18:21.261Z,82.90
2022-12-01T08:20:47.934Z,82.90
2022-12-01T08:23:14.610Z,82.90
2022-12-01T08:25:41.357Z,82.80
2022-12-01T08:28:08.006Z,82.80
2022-12-01T08:30:34.740Z,82.80
2022-12-01T08:33:01.421Z,82.80
2022-12-01T08:35:28.113Z,82.80
2022-12-01T08:37:54.807Z,82.90
2022-12-01T08:40:21.879Z,82.90
2022-12-01T08:42:48.598Z,82.90
2022-12-01T08:45:15.318Z,82.90
2022-12-01T08:47:42.018Z,82.90
2022-12-01T08:50:08.919Z,82.90
2022-12-01T08:52:35.603Z,83.00
2022-12-01T08:55:02.489Z,82.90
2022-12-01T08:57:29.953Z,82.90
2022-12-01T08:59:56.663Z,82.80
2022-12-01T09:02:23.870Z,82.90
2022-12-01T09:04:51.076Z,82.80
2022-12-01T09:07:24.454Z,82.90
2022-12-01T09:09:53.015Z,82.80
2022-12-01T09:12:19.907Z,82.70
2022-12-01T09:14:49.827Z,82.70
2022-12-01T09:17:17.398Z,82.70
2022-12-01T09:19:44.212Z,82.60
2022-12-01T09:22:11.713Z,82.60
2022-12-01T09:24:38.841Z,82.60
2022-12-01T09:27:06.164Z,82.60
2022-12-01T09:29:33.042Z,82.60
2022-12-01T09:32:00.160Z,82.50
2022-12-01T09:34:27.732Z,82.50
2022-12-01T09:36:55.258Z,82.50
2022-12-01T09:39:21.921Z,82.50
2022-12-01T09:41:57.901Z,82.40
2022-12-01T09:44:36.947Z,82.40
2022-12-01T09:47:19.341Z,82.40
2022-12-01T09:49:55.429Z,82.30
2022-12-01T09:52:23.354Z,82.20
2022-12-01T09:54:50.272Z,82.20
2022-12-01T09:57:23.294Z,82.10
2022-12-01T09:59:51.601Z,82.00
2022-12-01T10:02:27.564Z,82.00
2022-12-01T10:04:56.806Z,82.00
2022-12-01T10:07:31.860Z,81.90
2022-12-01T10:09:59.822Z,81.90
2022-12-01T10:12:30.217Z,81.90
2022-12-01T10:15:09.437Z,81.70
2022-12-01T10:17:41.773Z,81.80
2022-12-01T10:20:08.695Z,81.70
2022-12-01T10:22:45.515Z,81.70
2022-12-01T10:25:21.508Z,81.70
2022-12-01T10:28:06.875Z,81.70
2022-12-01T10:30:39.281Z,81.70
2022-12-01T10:33:09.067Z,81.50
2022-12-01T10:35:37.673Z,81.50
2022-12-01T10:38:06.867Z,81.50
2022-12-01T10:40:36.661Z,81.50
2022-12-01T10:43:03.401Z,81.40
2022-12-01T10:45:40.021Z,81.40
2022-12-01T10:48:17.732Z,81.40
2022-12-01T10:50:49.950Z,81.40
2022-12-01T10:53:22.449Z,81.40
2022-12-01T10:55:58.049Z,81.50
2022-12-01T10:58:25.873Z,81.60
2022-12-01T11:01:01.257Z,81.60
2022-12-01T11:03:30.889Z,81.70
2022-12-01T11:05:59.814Z,81.70
2022-12-01T11:08:46.504Z,81.80
2022-12-01T11:11:24.654Z,81.80
2022-12-01T11:13:51.527Z,81.70
2022-12-01T11:16:37.300Z,81.70
2022-12-01T11:19:07.975Z,81.70
2022-12-01T11:22:09.868Z,81.80
2022-12-01T11:24:53.251Z,81.80
2022-12-01T11:31:01.199Z,81.80
2022-12-01T11:33:28.841Z,81.80
2022-12-01T11:35:55.835Z,81.80
2022-12-01T11:38:31.089Z,81.80
2022-12-01T11:40:58.390Z,81.90
2022-12-01T11:43:28.174Z,81.90
2022-12-01T11:45:56.039Z,81.80
2022-12-01T11:48:25.745Z,81.70
2022-12-01T11:51:18.776Z,81.70
2022-12-01T11:53:45.500Z,81.70
2022-12-01T11:56:20.839Z,81.60
2022-12-01T11:58:48.131Z,81.70
2022-12-01T12:01:24.384Z,81.70
2022-12-01T12:04:14.626Z,81.70
2022-12-01T12:06:54.550Z,81.80
2022-12-01T12:09:26.359Z,81.80
2022-12-01T12:12:05.216Z,81.80
2022-12-01T12:14:49.024Z,81.80
2022-12-01T12:17:18.878Z,81.80
2022-12-01T12:20:08.452Z,81.80
2022-12-01T12:22:41.560Z,81.80
2022-12-01T12:25:25.383Z,81.80
2022-12-01T12:28:19.620Z,81.80
2022-12-01T12:30:52.257Z,81.80
2022-12-01T12:33:30.465Z,81.80
2022-12-01T12:35:57.168Z,81.80
2022-12-01T12:38:34.823Z,81.90
2022-12-01T12:41:20.316Z,81.90
2022-12-01T12:43:56.671Z,81.80
2022-12-01T12:46:31.276Z,81.70
2022-12-01T12:49:20.922Z,81.60
2022-12-01T12:51:54.234Z,81.50
2022-12-01T12:54:23.798Z,81.40
2022-12-01T12:56:52.856Z,81.30
2022-12-01T12:59:22.244Z,81.20
2022-12-01T13:02:08.970Z,81.10
2022-12-01T13:04:41.849Z,81.00
2022-12-01T13:07:15.489Z,81.00
2022-12-01T13:09:44.597Z,80.80
2022-12-01T13:12:15.918Z,80.70
2022-12-01T13:14:45.274Z,80.60
2022-12-01T13:17:18.287Z,80.60
2022-12-01T13:19:46.033Z,80.60
2022-12-01T13:22:13.397Z,80.50
2022-12-01T13:24:40.232Z,80.40
2022-12-01T13:27:13.244Z,80.20
2022-12-01T13:29:44.419Z,80.10
2022-12-01T13:32:25.897Z,80.00
2022-12-01T13:34:54.239Z,79.90
2022-12-01T13:37:32.118Z,79.90
2022-12-01T13:40:10.513Z,79.80
2022-12-01T13:42:38.077Z,79.80
2022-12-01T13:45:10.271Z,79.70
2022-12-01T13:47:39.650Z,79.50
2022-12-01T13:50:25.381Z,79.30
2022-12-01T13:53:06.607Z,79.30
2022-12-01T13:55:33.369Z,79.20
2022-12-01T13:58:00.014Z,79.10
2022-12-01T14:00:31.567Z,79.00
2022-12-01T14:03:10.788Z,78.90
2022-12-01T14:05:40.723Z,78.80
2022-12-01T14:08:23.365Z,78.70
2022-12-01T14:11:04.611Z,78.70
2022-12-01T14:13:32.271Z,78.80
2022-12-01T14:16:00.257Z,78.80
2022-12-01T14:18:33.224Z,78.80
2022-12-01T14:21:01.006Z,78.80
2022-12-01T14:23:29.252Z,78.80
2022-12-01T14:25:57.619Z,78.80
2022-12-01T14:28:44.352Z,78.90
2022-12-01T14:31:11.313Z,78.90
2022-12-01T14:33:45.937Z,78.80
2022-12-01T14:36:21.663Z,78.80
2022-12-01T14:39:08.767Z,78.80
2022-12-01T14:41:49.258Z,78.90
2022-12-01T14:44:19.025Z,78.90
2022-12-01T14:46:47.055Z,78.90
2022-12-01T14:49:18.726Z,78.90
2022-12-01T14:51:47.245Z,78.90
2022-12-01T14:54:19.131Z,78.90
2022-12-01T15:21:31.969Z,79.50
2022-12-01T15:23:59.879Z,79.60
2022-12-01T15:26:32.493Z,79.50
2022-12-01T15:29:05.409Z,79.50
2022-12-01T15:31:32.392Z,79.50
2022-12-01T15:33:59.382Z,79.50
2022-12-01T15:36:26.124Z,79.40
2022-12-01T15:38:53.043Z,79.50
2022-12-01T16:03:06.680Z,79.50
2022-12-01T16:05:35.398Z,79.40
2022-12-01T16:40:45.186Z,78.90
2022-12-01T16:43:13.665Z,78.80
2022-12-01T16:45:40.508Z,78.80
2022-12-01T16:48:09.466Z,78.80
2022-12-01T16:50:36.386Z,78.80
2022-12-01T16:53:03.571Z,78.70
2022-12-01T16:55:38.718Z,78.50
2022-12-01T16:58:05.829Z,78.30
2022-12-01T17:00:33.073Z,78.10
2022-12-01T17:03:00.091Z,78.00
2022-12-01T17:05:27.437Z,78.00
2022-12-01T17:07:54.681Z,77.90
2022-12-01T17:10:23.272Z,77.90
2022-12-01T17:12:50.462Z,77.90
2022-12-01T17:15:17.412Z,78.00
2022-12-01T17:17:44.640Z,77.90
2022-12-01T17:20:11.814Z,77.90
2022-12-01T17:22:38.606Z,78.00
2022-12-01T17:25:05.675Z,78.10
2022-12-01T17:27:32.430Z,78.10
2022-12-01T17:29:59.273Z,78.10
2022-12-01T17:32:26.575Z,78.10
2022-12-01T17:34:53.441Z,78.20
2022-12-01T17:57:50.871Z,78.20
2022-12-01T18:00:17.830Z,78.20
2022-12-01T18:12:07.946Z,78.00
2022-12-01T18:14:34.792Z,77.90
2022-12-01T18:17:01.467Z,77.90
2022-12-01T18:19:28.263Z,77.90
2022-12-01T18:21:55.016Z,77.80
2022-12-01T18:24:21.764Z,77.90
2022-12-01T18:26:48.453Z,77.90
2022-12-01T18:29:25.839Z,77.80
2022-12-01T18:34:57.868Z,78.00
2022-12-01T18:37:24.559Z,78.00
2022-12-01T22:41:45.459Z,73.80
2022-12-01T22:46:58.363Z,73.70
2022-12-01T22:49:25.242Z,73.70
2022-12-01T22:51:59.731Z,73.50
2022-12-01T22:54:37.703Z,73.50
2022-12-01T22:57:10.262Z,73.50
2022-12-01T22:59:40.485Z,73.60
